Time;durP1;ratioP1;P1;durP2;ratioP2;P2;SDS_P1;SDS_P2;PMS_P1;PMS_P2;Temp;Humidity;BMP_temperature;BMP_pressure;BME280_temperature;BME280_humidity;BME280_pressure;Samples;Min_cycle;Max_cycle;Signal;HPM_P1;HPM_P2
2022/08/03 00:01:51;;;;;;;3.30;3.00;;;18.80;1.00;;;;;;5026395;28;20572;-77
2022/08/03 00:05:08;;;;;;;5.03;2.73;;;18.80;1.00;;;;;;5016221;28;20536;-77
2022/08/03 00:07:34;;;;;;;3.40;3.10;;;18.70;1.00;;;;;;5028843;28;20427;-77
2022/08/03 00:10:00;;;;;;;2.90;2.70;;;18.70;1.00;;;;;;5020969;28;20466;-77
2022/08/03 00:12:27;;;;;;;5.30;2.93;;;18.60;1.00;;;;;;5026969;28;20172;-77
2022/08/03 00:14:52;;;;;;;3.97;3.07;;;18.60;1.00;;;;;;5027375;28;20631;-75
2022/08/03 00:17:18;;;;;;;3.70;3.17;;;18.60;1.00;;;;;;5017302;28;20431;-74
2022/08/03 00:19:44;;;;;;;6.10;3.00;;;18.60;1.00;;;;;;5020319;28;20205;-74
2022/08/03 00:22:10;;;;;;;4.53;2.70;;;18.50;1.00;;;;;;5033093;28;20257;-74
2022/08/03 00:24:39;;;;;;;3.10;2.90;;;18.50;1.00;;;;;;5030213;28;20213;-75
2022/08/03 00:27:09;;;;;;;3.17;2.60;;;18.50;1.00;;;;;;5032804;28;20441;-74
2022/08/03 00:29:51;;;;;;;5.10;3.20;;;18.40;1.00;;;;;;5018985;28;20820;-77
2022/08/03 00:32:17;;;;;;;5.10;3.07;;;18.40;1.00;;;;;;5034513;28;20417;-78
2022/08/03 00:34:51;;;;;;;7.50;3.90;;;18.40;1.00;;;;;;5022890;28;20823;-78
2022/08/03 00:37:17;;;;;;;4.13;3.13;;;18.40;1.00;;;;;;5030805;28;20843;-78
2022/08/03 00:39:45;;;;;;;3.63;3.30;;;18.30;1.00;;;;;;5022257;28;20537;-78
2022/08/03 00:42:15;;;;;;;2.87;2.67;;;18.30;1.00;;;;;;5030061;28;20186;-78
2022/08/03 00:44:45;;;;;;;6.13;3.23;;;18.30;1.00;;;;;;5030600;28;20764;-77
2022/08/03 00:47:21;;;;;;;3.93;3.47;;;18.20;1.00;;;;;;5022685;28;20425;-78
2022/08/03 00:49:51;;;;;;;6.30;3.20;;;18.20;1.00;;;;;;5029108;28;20547;-77
2022/08/03 00:52:21;;;;;;;10.57;3.67;;;18.20;1.00;;;;;;5019943;28;20782;-78
2022/08/03 00:55:03;;;;;;;3.20;3.00;;;18.20;1.00;;;;;;5021139;28;20789;-78
2022/08/03 00:57:33;;;;;;;3.23;2.93;;;18.10;1.00;;;;;;5017149;28;20482;-78
2022/08/03 00:59:59;;;;;;;3.90;2.97;;;18.10;1.00;;;;;;5023904;28;20463;-75
2022/08/03 01:02:27;;;;;;;3.93;3.53;;;18.10;1.00;;;;;;5044298;28;20439;-74
2022/08/03 01:04:53;;;;;;;7.57;3.57;;;18.10;1.00;;;;;;5020020;28;20769;-75
2022/08/03 01:07:44;;;;;;;3.97;3.43;;;18.10;1.00;;;;;;5027940;28;20451;-74
2022/08/03 01:10:20;;;;;;;6.23;3.50;;;18.00;1.00;;;;;;5016738;28;20208;-75
2022/08/03 01:13:04;;;;;;;4.90;3.30;;;17.90;1.00;;;;;;5017104;28;20424;-75
2022/08/03 01:15:43;;;;;;;6.97;3.83;;;17.90;1.00;;;;;;5030157;28;20421;-78
2022/08/03 01:18:17;;;;;;;6.90;3.50;;;17.90;1.00;;;;;;5023170;28;20448;-78
2022/08/03 01:21:27;;;;;;;5.37;4.17;;;17.90;1.00;;;;;;5029175;28;20817;-78
2022/08/03 01:24:38;;;;;;;5.77;3.67;;;17.80;1.00;;;;;;5025861;28;20417;-78
2022/08/03 01:27:42;;;;;;;5.30;3.80;;;17.80;1.00;;;;;;5022127;28;20406;-78
2022/08/03 01:30:11;;;;;;;3.77;3.47;;;17.70;1.00;;;;;;5051290;28;20466;-78
2022/08/03 01:33:03;;;;;;;3.90;3.53;;;17.70;1.00;;;;;;5028499;28;20914;-78
2022/08/03 01:35:50;;;;;;;3.97;3.50;;;17.60;1.00;;;;;;5051600;28;21046;-78
2022/08/03 01:38:37;;;;;;;6.60;4.10;;;17.60;1.00;;;;;;5031110;28;20516;-78
2022/08/03 01:41:10;;;;;;;5.73;3.93;;;17.50;1.00;;;;;;5033915;28;20436;-78
2022/08/03 01:43:52;;;;;;;4.20;3.80;;;17.50;1.00;;;;;;5034079;28;20899;-78
2022/08/03 01:46:30;;;;;;;8.03;4.80;;;17.50;1.00;;;;;;5067437;28;20406;-78
2022/08/03 01:48:58;;;;;;;6.97;4.20;;;17.40;1.00;;;;;;5043939;28;20481;-78
2022/08/03 01:51:46;;;;;;;5.47;4.00;;;17.40;1.00;;;;;;5048619;28;20925;-78
2022/08/03 01:54:34;;;;;;;5.40;4.10;;;17.40;1.00;;;;;;5043901;28;20514;-78
2022/08/03 01:57:28;;;;;;;6.33;4.60;;;17.30;1.00;;;;;;5049139;28;20401;-78
2022/08/03 02:00:15;;;;;;;10.43;4.23;;;17.30;1.00;;;;;;5059141;28;20480;-78
2022/08/03 02:02:43;;;;;;;4.10;3.63;;;17.30;1.00;;;;;;5050922;28;20975;-79
2022/08/03 02:05:10;;;;;;;4.30;4.00;;;17.20;1.00;;;;;;5048329;28;20438;-78
2022/08/03 02:07:39;;;;;;;6.17;4.10;;;17.30;1.00;;;;;;5027027;28;20446;-77
2022/08/03 02:10:11;;;;;;;6.70;4.43;;;17.20;1.00;;;;;;5032831;28;20442;-78
2022/08/03 02:12:46;;;;;;;5.10;4.53;;;17.10;1.00;;;;;;5032985;28;20413;-78
2022/08/03 02:15:15;;;;;;;4.47;4.07;;;17.10;1.00;;;;;;5021070;28;20910;-78
2022/08/03 02:17:42;;;;;;;5.20;3.73;;;17.10;1.00;;;;;;5032557;28;20502;-78
2022/08/03 02:20:12;;;;;;;7.47;4.17;;;17.10;1.00;;;;;;5024092;28;21011;-78
2022/08/03 02:22:45;;;;;;;7.13;4.47;;;17.20;1.00;;;;;;5021969;28;20470;-78
2022/08/03 02:25:50;;;;;;;6.33;4.10;;;17.20;1.00;;;;;;5033083;28;20411;-78
2022/08/03 02:28:49;;;;;;;8.33;4.20;;;17.00;1.00;;;;;;5032733;28;20456;-79
2022/08/03 02:34:44;;;;;;;6.83;4.40;;;17.00;1.00;;;;;;5015048;28;20406;-78
2022/08/03 02:37:18;;;;;;;5.83;4.17;;;17.00;1.00;;;;;;5017424;28;20449;-78
2022/08/03 02:39:46;;;;;;;6.33;3.83;;;17.00;1.00;;;;;;5030900;28;20439;-78
2022/08/03 02:42:23;;;;;;;4.53;4.03;;;16.90;1.00;;;;;;5033732;28;20418;-78
2022/08/03 02:45:01;;;;;;;4.23;3.90;;;16.90;1.00;;;;;;5023472;28;20490;-75
2022/08/03 02:47:28;;;;;;;8.93;4.20;;;16.90;1.00;;;;;;5033918;28;20431;-75
2022/08/03 02:49:58;;;;;;;7.20;3.70;;;16.80;1.00;;;;;;5015713;28;20963;-75
2022/08/03 02:52:27;;;;;;;7.60;4.30;;;16.80;1.00;;;;;;5011635;28;20455;-75
2022/08/03 02:55:04;;;;;;;11.60;4.00;;;16.80;1.00;;;;;;5032639;28;20921;-75
2022/08/03 02:57:40;;;;;;;5.13;4.27;;;16.80;1.00;;;;;;5031543;28;20427;-75
2022/08/03 03:00:16;;;;;;;6.20;4.27;;;16.70;1.00;;;;;;5030595;28;20413;-78
2022/08/03 03:02:46;;;;;;;8.13;4.60;;;16.70;1.00;;;;;;5018407;28;20480;-78
2022/08/03 03:05:21;;;;;;;5.60;4.03;;;16.70;1.00;;;;;;5025843;28;20562;-78
2022/08/03 03:07:51;;;;;;;8.67;4.30;;;16.80;1.00;;;;;;5026347;28;20419;-78
2022/08/03 03:10:22;;;;;;;18.90;4.50;;;16.70;1.00;;;;;;5030321;28;20457;-78
2022/08/03 03:13:04;;;;;;;4.30;3.90;;;16.60;1.00;;;;;;5024148;28;20880;-78
2022/08/03 03:15:31;;;;;;;5.50;4.50;;;16.60;1.00;;;;;;5018695;28;20828;-78
2022/08/03 03:18:04;;;;;;;4.10;3.70;;;16.60;1.00;;;;;;5014848;28;20411;-78
2022/08/03 03:20:40;;;;;;;4.47;4.07;;;16.60;1.00;;;;;;5023807;28;20933;-79
2022/08/03 03:23:28;;;;;;;6.00;4.30;;;16.60;1.00;;;;;;5035908;28;20398;-78
2022/08/03 03:26:11;;;;;;;7.83;4.27;;;16.60;1.00;;;;;;5021811;28;20428;-78
2022/08/03 03:28:51;;;;;;;9.03;4.77;;;16.60;1.00;;;;;;5016216;28;20433;-78
2022/08/03 03:31:17;;;;;;;5.40;4.40;;;16.60;1.00;;;;;;5017465;28;20434;-76
2022/08/03 03:33:46;;;;;;;5.80;4.37;;;16.60;1.00;;;;;;5016218;28;20422;-75
2022/08/03 03:36:21;;;;;;;6.40;5.00;;;16.60;1.00;;;;;;5015824;28;20637;-75
2022/08/03 03:38:46;;;;;;;5.40;4.90;;;16.60;1.00;;;;;;5018805;28;20530;-75
2022/08/03 03:41:15;;;;;;;7.93;4.57;;;16.50;1.00;;;;;;5033159;28;20431;-75
2022/08/03 03:43:51;;;;;;;7.13;4.47;;;16.50;1.00;;;;;;5034158;28;20177;-75
2022/08/03 03:46:17;;;;;;;7.43;4.73;;;16.50;1.00;;;;;;5034149;28;20422;-78
2022/08/03 03:48:45;;;;;;;5.03;4.53;;;16.50;1.00;;;;;;5032425;28;20775;-78
2022/08/03 03:51:38;;;;;;;4.60;4.20;;;16.50;1.00;;;;;;5034804;28;20430;-78
2022/08/03 03:54:05;;;;;;;5.50;4.63;;;16.40;1.00;;;;;;5029987;28;20775;-79
2022/08/03 03:56:39;;;;;;;5.47;4.93;;;16.40;1.00;;;;;;5024008;28;20398;-78
2022/08/03 03:59:15;;;;;;;6.10;4.60;;;16.40;1.00;;;;;;5030823;28;20413;-78
2022/08/03 04:01:51;;;;;;;6.53;4.60;;;16.40;1.00;;;;;;5022911;28;20435;-75
2022/08/03 04:12:37;;;;;;;4.70;4.20;;;16.50;1.00;;;;;;5031193;28;20435;-76
2022/08/03 04:15:05;;;;;;;5.23;4.73;;;16.50;1.00;;;;;;5024692;28;20387;-75
2022/08/03 04:17:34;;;;;;;4.30;3.87;;;16.50;1.00;;;;;;5024779;28;20446;-75
2022/08/03 04:20:02;;;;;;;4.70;4.20;;;16.50;1.00;;;;;;5024835;28;20976;-75
2022/08/03 04:22:31;;;;;;;6.63;4.87;;;16.60;1.00;;;;;;5017846;28;20511;-75
2022/08/03 04:25:04;;;;;;;7.87;5.40;;;16.60;1.00;;;;;;5022234;28;20425;-75
2022/08/03 04:27:38;;;;;;;6.70;4.77;;;16.60;1.00;;;;;;5016271;28;20946;-76
2022/08/03 04:30:10;;;;;;;5.77;5.17;;;16.60;1.00;;;;;;5025409;28;20546;-76
2022/08/03 04:32:50;;;;;;;6.60;4.77;;;16.60;1.00;;;;;;5025259;28;20423;-76
2022/08/03 04:35:31;;;;;;;7.53;5.00;;;16.60;1.00;;;;;;5027353;28;20958;-85
2022/08/03 04:38:38;;;;;;;14.37;5.03;;;16.70;1.00;;;;;;5030753;28;20435;-86
2022/08/03 04:41:05;;;;;;;5.37;4.80;;;16.70;1.00;;;;;;5027894;28;20796;-75
2022/08/03 04:43:40;;;;;;;8.10;5.00;;;16.70;1.00;;;;;;5019079;28;20804;-76
2022/08/03 04:46:09;;;;;;;13.53;4.93;;;16.70;1.00;;;;;;5035067;28;20408;-76
2022/08/03 04:48:36;;;;;;;7.40;5.00;;;16.80;1.00;;;;;;5031242;28;20422;-75
2022/08/03 04:51:03;;;;;;;6.93;4.50;;;16.80;1.00;;;;;;5021608;28;20838;-75
2022/08/03 04:53:33;;;;;;;8.80;4.90;;;16.90;1.00;;;;;;5033498;28;20891;-75
2022/08/03 04:56:05;;;;;;;7.80;5.50;;;16.90;1.00;;;;;;5025927;28;20843;-75
2022/08/03 04:58:31;;;;;;;14.73;5.37;;;16.90;1.00;;;;;;5016091;28;20432;-76
2022/08/03 05:01:09;;;;;;;11.87;5.43;;;17.00;1.00;;;;;;5026556;28;20949;-75
2022/08/03 05:03:46;;;;;;;8.90;4.97;;;17.00;1.00;;;;;;5022749;28;20391;-82
2022/08/03 05:06:31;;;;;;;7.13;5.00;;;17.10;1.00;;;;;;5019761;28;20978;-82
2022/08/03 05:08:57;;;;;;;6.40;5.00;;;17.20;1.00;;;;;;5017433;28;20519;-82
2022/08/03 05:11:50;;;;;;;9.00;5.33;;;17.30;1.00;;;;;;5013855;28;20480;-82
2022/08/03 05:14:27;;;;;;;11.73;4.57;;;17.30;1.00;;;;;;5027438;28;20320;-82
2022/08/03 05:16:57;;;;;;;6.47;4.27;;;17.40;1.00;;;;;;5028416;28;20443;-76
2022/08/03 05:19:39;;;;;;;5.77;4.67;;;17.50;1.00;;;;;;5028811;28;20915;-75
2022/08/03 05:22:09;;;;;;;10.37;5.20;;;17.60;1.00;;;;;;5034592;28;20448;-75
2022/08/03 05:24:35;;;;;;;7.07;5.00;;;17.60;1.00;;;;;;5018165;28;20412;-75
2022/08/03 05:27:00;;;;;;;9.23;5.20;;;17.70;1.00;;;;;;5030243;28;20424;-75
2022/08/03 05:29:27;;;;;;;7.33;4.20;;;17.80;1.00;;;;;;5029726;28;20196;-75
2022/08/03 05:31:57;;;;;;;8.90;4.67;;;17.90;1.00;;;;;;5018105;28;20217;-83
2022/08/03 05:34:23;;;;;;;6.83;5.67;;;18.00;1.00;;;;;;5016382;28;20437;-82
2022/08/03 05:36:48;;;;;;;18.03;5.00;;;18.10;1.00;;;;;;5024320;28;20414;-83
2022/08/03 05:39:33;;;;;;;10.20;4.53;;;18.20;1.00;;;;;;5022280;28;20194;-83
2022/08/03 05:42:20;;;;;;;5.80;4.50;;;18.30;1.00;;;;;;5020670;28;20559;-83
2022/08/03 05:44:57;;;;;;;6.93;4.10;;;18.40;1.00;;;;;;5018678;28;20440;-83
2022/08/03 05:47:23;;;;;;;9.70;4.60;;;18.60;1.00;;;;;;5032090;28;20908;-77
2022/08/03 05:49:57;;;;;;;8.73;4.43;;;18.60;1.00;;;;;;5024180;28;20435;-76
2022/08/03 05:52:23;;;;;;;10.00;4.50;;;18.80;1.00;;;;;;5020239;28;20538;-77
2022/08/03 05:54:49;;;;;;;6.33;4.43;;;18.90;1.00;;;;;;5029963;28;20411;-76
2022/08/03 05:57:15;;;;;;;9.50;4.63;;;19.00;1.00;;;;;;5018879;28;20182;-77
2022/08/03 05:59:41;;;;;;;7.63;4.40;;;19.10;1.00;;;;;;5018215;28;20180;-77
2022/08/03 06:02:09;;;;;;;8.63;4.47;;;19.30;1.00;;;;;;5018383;28;20481;-77
2022/08/03 06:04:39;;;;;;;9.43;4.13;;;19.40;1.00;;;;;;5018934;28;20271;-77
2022/08/03 06:07:21;;;;;;;7.17;4.00;;;19.50;1.00;;;;;;5029907;28;20492;-76
2022/08/03 06:09:47;;;;;;;6.90;4.30;;;19.70;1.00;;;;;;5017472;28;20503;-76
2022/08/03 06:12:15;;;;;;;4.60;3.63;;;19.80;1.00;;;;;;5017550;28;20538;-76
2022/08/03 06:14:57;;;;;;;8.77;4.80;;;20.00;1.00;;;;;;5033148;28;21052;-77
2022/08/03 06:17:27;;;;;;;13.53;4.40;;;20.10;1.00;;;;;;5024243;28;20441;-83
2022/08/03 06:20:10;;;;;;;7.17;3.90;;;20.20;1.00;;;;;;5021737;28;20782;-83
2022/08/03 06:22:39;;;;;;;21.53;3.90;;;20.40;1.00;;;;;;5027135;28;20458;-83
2022/08/03 06:25:27;;;;;;;14.60;4.13;;;20.50;1.00;;;;;;5019409;28;20439;-83
2022/08/03 06:27:58;;;;;;;5.27;3.53;;;20.70;1.00;;;;;;5028965;28;20480;-84
2022/08/03 06:30:27;;;;;;;6.43;3.73;;;20.90;1.00;;;;;;5020170;28;20469;-82
2022/08/03 06:32:57;;;;;;;6.90;4.27;;;21.00;1.00;;;;;;5023989;28;20510;-83
2022/08/03 06:35:39;;;;;;;3.80;3.43;;;21.10;1.00;;;;;;5025492;28;21001;-94
2022/08/03 06:38:09;;;;;;;7.03;3.53;;;21.30;1.00;;;;;;5016472;28;20873;-77
2022/08/03 06:40:38;;;;;;;7.50;3.37;;;21.50;1.00;;;;;;5020031;28;20524;-78
2022/08/03 06:43:06;;;;;;;17.30;4.27;;;21.60;1.00;;;;;;5028699;28;20920;-77
2022/08/03 06:45:32;;;;;;;7.10;3.47;;;21.80;1.00;;;;;;5023129;28;21279;-77
2022/08/03 06:48:10;;;;;;;10.03;3.57;;;21.90;1.00;;;;;;5028977;28;20951;-77
2022/08/03 06:50:51;;;;;;;13.40;3.80;;;22.10;1.00;;;;;;5030405;28;20468;-79
2022/08/03 06:53:21;;;;;;;3.87;3.43;;;22.30;1.00;;;;;;5027455;28;20430;-80
2022/08/03 06:55:51;;;;;;;4.07;3.67;;;22.50;1.00;;;;;;5023690;28;20412;-80
2022/08/03 06:58:21;;;;;;;12.67;3.53;;;22.60;1.00;;;;;;5023015;28;21037;-80
2022/08/03 07:00:47;;;;;;;15.17;3.40;;;22.70;1.00;;;;;;5015321;28;20496;-80
2022/08/03 07:03:27;;;;;;;4.00;3.33;;;22.90;1.00;;;;;;5035309;28;20442;-79
2022/08/03 07:05:57;;;;;;;6.20;3.50;;;23.00;1.00;;;;;;5026113;28;20919;-79
2022/08/03 07:08:33;;;;;;;6.03;3.47;;;23.20;1.00;;;;;;5016251;28;20427;-79
2022/08/03 07:11:03;;;;;;;6.47;3.20;;;23.40;1.00;;;;;;5033846;28;20471;-79
2022/08/03 07:13:45;;;;;;;8.30;3.60;;;23.40;1.00;;;;;;5023300;28;20526;-78
2022/08/03 07:16:11;;;;;;;14.37;3.43;;;23.60;1.00;;;;;;5014723;28;20861;-78
2022/08/03 07:18:39;;;;;;;6.97;3.43;;;23.70;1.00;;;;;;5030442;28;20436;-80
2022/08/03 07:21:06;;;;;;;6.10;3.43;;;23.90;1.00;;;;;;5015790;28;20190;-80
2022/08/03 07:23:32;;;;;;;9.23;3.70;;;24.10;1.00;;;;;;5024741;28;20880;-80
2022/08/03 07:25:57;;;;;;;5.67;3.03;;;24.20;1.00;;;;;;5021838;28;20526;-80
2022/08/03 07:28:23;;;;;;;6.00;3.20;;;24.40;1.00;;;;;;5028441;28;20232;-80
2022/08/03 07:30:49;;;;;;;5.70;3.67;;;24.50;1.00;;;;;;5030544;28;20214;-80
2022/08/03 07:33:14;;;;;;;5.43;3.43;;;24.70;1.00;;;;;;5033500;28;20213;-79
2022/08/03 07:35:40;;;;;;;3.33;2.90;;;24.80;1.00;;;;;;5024010;28;20188;-79
2022/08/03 07:38:05;;;;;;;3.30;3.00;;;24.90;1.00;;;;;;5014652;28;20194;-78
2022/08/03 07:40:31;;;;;;;8.60;3.43;;;25.10;1.00;;;;;;5015194;28;20187;-87
2022/08/03 07:42:57;;;;;;;6.80;3.40;;;25.30;1.00;;;;;;5015776;28;20194;-87
2022/08/03 07:45:23;;;;;;;8.53;3.10;;;25.40;1.00;;;;;;5015277;28;20190;-87
2022/08/03 07:47:49;;;;;;;12.87;3.10;;;25.60;1.00;;;;;;5015416;28;20218;-77
2022/08/03 07:50:14;;;;;;;4.70;3.00;;;25.80;1.00;;;;;;5014421;28;20462;-77
2022/08/03 07:52:46;;;;;;;14.90;3.50;;;25.90;1.00;;;;;;5015012;28;20442;-77
2022/08/03 07:55:12;;;;;;;3.03;2.83;;;26.10;1.00;;;;;;5028997;28;20264;-77
2022/08/03 07:57:39;;;;;;;9.50;2.80;;;26.20;1.00;;;;;;5020642;28;20473;-77
2022/08/03 08:00:10;;;;;;;4.43;2.70;;;26.40;1.00;;;;;;5016545;28;20437;-71
2022/08/03 08:02:36;;;;;;;4.87;2.60;;;26.50;1.00;;;;;;5021335;28;20425;-71
2022/08/03 08:05:01;;;;;;;4.07;2.80;;;26.70;1.00;;;;;;5022177;28;20929;-72
2022/08/03 08:07:27;;;;;;;5.70;3.10;;;26.80;1.00;;;;;;5014906;28;20187;-72
2022/08/03 08:09:53;;;;;;;4.47;3.27;;;26.90;1.00;;;;;;5027584;28;20194;-72
2022/08/03 08:12:19;;;;;;;3.80;2.20;;;27.10;1.00;;;;;;5027709;28;20184;-72
2022/08/03 08:14:45;;;;;;;7.27;2.47;;;27.10;1.00;;;;;;5022323;28;20217;-72
2022/08/03 08:17:11;;;;;;;8.70;3.00;;;27.20;1.00;;;;;;5014175;28;20259;-72
2022/08/03 08:19:37;;;;;;;4.30;3.13;;;27.30;1.00;;;;;;5027695;28;20399;-78
2022/08/03 08:22:03;;;;;;;9.90;3.10;;;27.40;1.00;;;;;;5028716;28;20772;-78
2022/08/03 08:24:33;;;;;;;12.20;2.83;;;27.50;1.00;;;;;;5027689;28;20364;-78
2022/08/03 08:27:00;;;;;;;11.50;2.70;;;27.70;1.00;;;;;;5028158;28;20425;-72
2022/08/03 08:29:26;;;;;;;3.77;2.47;;;27.80;1.00;;;;;;5027588;28;20422;-72
2022/08/03 08:31:51;;;;;;;4.40;3.20;;;27.90;1.00;;;;;;5021684;28;20863;-72
2022/08/03 08:34:17;;;;;;;8.73;2.70;;;28.00;1.00;;;;;;5021151;28;20423;-71
2022/08/03 08:36:43;;;;;;;3.00;2.70;;;28.20;1.00;;;;;;5018474;28;20529;-72
2022/08/03 08:39:09;;;;;;;3.97;2.70;;;28.30;1.00;;;;;;5032616;28;20705;-72
2022/08/03 08:41:34;;;;;;;5.77;2.70;;;28.40;1.00;;;;;;5020942;28;20199;-72
2022/08/03 08:44:01;;;;;;;7.13;2.43;;;28.50;1.00;;;;;;5021188;28;20193;-72
2022/08/03 08:46:30;;;;;;;3.43;2.20;;;28.60;1.00;;;;;;5021340;28;20197;-72
2022/08/03 08:48:57;;;;;;;6.27;2.67;;;28.70;1.00;;;;;;5028067;28;20426;-72
2022/08/03 08:51:28;;;;;;;6.03;2.60;;;28.90;1.00;;;;;;5014148;28;20980;-72
2022/08/03 08:53:56;;;;;;;4.10;2.50;;;29.10;1.00;;;;;;5018627;28;20425;-72
2022/08/03 08:56:24;;;;;;;12.67;3.20;;;29.20;1.00;;;;;;5022584;28;20426;-72
2022/08/03 08:58:55;;;;;;;7.70;2.10;;;29.30;1.00;;;;;;5019284;28;20428;-81
2022/08/03 09:01:21;;;;;;;3.50;2.27;;;29.40;1.00;;;;;;5021436;28;20424;-72
2022/08/03 09:03:47;;;;;;;6.00;1.97;;;29.50;1.00;;;;;;5014368;28;20430;-72
2022/08/03 09:06:13;;;;;;;2.20;2.00;;;29.60;1.00;;;;;;5014204;28;20222;-72
2022/08/03 09:08:40;;;;;;;4.40;2.50;;;29.80;1.00;;;;;;5033751;28;20441;-71
2022/08/03 09:11:06;;;;;;;2.80;2.20;;;30.00;1.00;;;;;;5033435;28;20474;-72
2022/08/03 09:13:33;;;;;;;3.27;2.33;;;30.10;1.00;;;;;;5014335;28;20474;-71
2022/08/03 09:16:17;;;;;;;3.33;2.50;;;30.20;1.00;;;;;;5013606;28;20763;-72
2022/08/03 09:18:49;;;;;;;6.30;2.93;;;30.20;1.00;;;;;;5014039;28;20408;-73
2022/08/03 09:21:28;;;;;;;7.23;2.40;;;30.20;1.00;;;;;;5027180;28;20514;-73
2022/08/03 09:23:55;;;;;;;4.67;2.00;;;30.30;1.00;;;;;;5014341;28;20447;-75
2022/08/03 09:26:26;;;;;;;8.03;2.20;;;30.40;1.00;;;;;;5027388;28;20419;-77
2022/08/03 09:29:23;;;;;;;4.83;2.27;;;30.60;1.00;;;;;;5013078;28;20890;-79
2022/08/03 09:31:59;;;;;;;6.23;2.60;;;30.70;1.00;;;;;;5001821;28;20530;-78
2022/08/03 09:34:27;;;;;;;3.03;2.30;;;30.80;1.00;;;;;;5007493;28;20782;-78
2022/08/03 09:37:32;;;;;;;8.60;2.60;;;30.90;1.00;;;;;;5003504;28;20977;-79
2022/08/03 09:40:04;;;;;;;5.00;2.00;;;30.80;1.00;;;;;;5001052;28;20417;-79
2022/08/03 09:42:55;;;;;;;5.47;2.50;;;30.90;1.00;;;;;;5009167;28;20522;-79
2022/08/03 09:45:28;;;;;;;6.20;2.13;;;31.00;1.00;;;;;;5006995;28;20420;-79
2022/08/03 09:48:24;;;;;;;9.97;3.20;;;31.00;1.00;;;;;;4997867;28;20439;-79
2022/08/03 09:50:59;;;;;;;5.73;1.83;;;31.10;1.00;;;;;;5005111;28;20551;-79
2022/08/03 09:53:25;;;;;;;4.20;1.70;;;31.30;1.00;;;;;;4997940;28;20418;-79
2022/08/03 09:56:03;;;;;;;2.80;2.23;;;31.30;1.00;;;;;;5004386;28;20504;-79
2022/08/03 09:58:30;;;;;;;2.60;2.40;;;31.40;1.00;;;;;;5002121;28;20957;-79
2022/08/03 10:01:04;;;;;;;2.13;1.67;;;31.60;1.00;;;;;;5000815;28;20451;-81
2022/08/03 10:03:57;;;;;;;1.70;1.60;;;31.80;1.00;;;;;;4988812;28;20454;-82
2022/08/03 10:06:32;;;;;;;1.73;1.63;;;32.10;1.00;;;;;;5003701;28;20435;-79
2022/08/03 10:09:08;;;;;;;2.20;1.70;;;32.20;1.00;;;;;;5021869;28;20795;-79
2022/08/03 10:11:35;;;;;;;1.70;1.60;;;32.30;1.00;;;;;;5016719;28;20462;-76
2022/08/03 10:14:05;;;;;;;4.60;1.70;;;32.40;1.00;;;;;;5017543;28;20480;-81
2022/08/03 10:16:39;;;;;;;1.60;1.50;;;32.40;1.00;;;;;;5018596;28;20929;-81
2022/08/03 10:19:18;;;;;;;2.63;1.60;;;32.50;1.00;;;;;;5021386;28;20477;-81
2022/08/03 10:21:54;;;;;;;2.53;1.43;;;32.70;1.00;;;;;;5031946;28;20411;-82
2022/08/03 10:24:35;;;;;;;1.60;1.50;;;32.80;1.00;;;;;;5018525;28;20499;-82
2022/08/03 10:27:06;;;;;;;4.90;1.70;;;32.80;1.00;;;;;;5019857;28;20518;-82
2022/08/03 10:29:38;;;;;;;1.80;1.70;;;32.90;1.00;;;;;;5026279;28;20477;-82
2022/08/03 10:32:13;;;;;;;3.30;1.80;;;32.90;1.00;;;;;;5015408;28;20848;-84
2022/08/03 10:34:49;;;;;;;1.73;1.63;;;32.80;1.00;;;;;;5032690;28;20434;-78
2022/08/03 10:37:31;;;;;;;7.03;2.10;;;32.80;1.00;;;;;;5020418;28;20411;-81
2022/08/03 10:39:58;;;;;;;1.40;1.30;;;32.90;1.00;;;;;;5033587;28;20933;-76
2022/08/03 10:42:30;;;;;;;1.70;1.60;;;32.90;1.00;;;;;;5027279;28;20416;-80
2022/08/03 10:45:05;;;;;;;1.90;1.80;;;33.00;1.00;;;;;;5033642;28;20415;-79
2022/08/03 10:47:34;;;;;;;1.57;1.47;;;33.00;1.00;;;;;;5025717;28;20418;-79
2022/08/03 10:50:22;;;;;;;2.20;1.83;;;33.00;1.00;;;;;;5021813;28;20801;-81
2022/08/03 10:53:07;;;;;;;3.93;1.43;;;33.20;1.00;;;;;;5023192;28;20463;-80
2022/08/03 10:58:39;;;;;;;3.63;1.47;;;33.40;1.00;;;;;;5023612;28;20750;-80
2022/08/03 11:01:10;;;;;;;1.53;1.43;;;33.50;1.00;;;;;;5021415;28;20501;-79
2022/08/03 11:03:57;;;;;;;1.50;1.40;;;33.50;1.00;;;;;;5026165;28;20420;-80
2022/08/03 11:06:32;;;;;;;4.83;1.63;;;33.70;1.00;;;;;;5036199;28;20416;-80
2022/08/03 11:09:10;;;;;;;4.23;1.80;;;33.90;1.00;;;;;;5021422;28;20451;-80
2022/08/03 11:11:57;;;;;;;1.73;1.63;;;33.80;1.00;;;;;;5029361;28;20458;-81
2022/08/03 11:14:44;;;;;;;4.40;1.90;;;33.80;1.00;;;;;;5016217;28;20416;-80
2022/08/03 11:17:11;;;;;;;3.77;1.53;;;33.70;1.00;;;;;;5019076;28;20451;-80
2022/08/03 11:19:48;;;;;;;1.70;1.60;;;33.70;1.00;;;;;;5022460;28;20463;-80
2022/08/03 11:22:17;;;;;;;2.00;1.60;;;33.70;1.00;;;;;;5027763;28;20416;-80
2022/08/03 11:25:03;;;;;;;1.63;1.53;;;33.60;1.00;;;;;;5027556;28;21006;-79
2022/08/03 11:27:35;;;;;;;2.03;1.60;;;33.80;1.00;;;;;;5033108;28;20410;-80
2022/08/03 11:30:33;;;;;;;3.43;1.83;;;33.90;1.00;;;;;;5034320;28;20914;-80
2022/08/03 11:32:59;;;;;;;4.63;1.20;;;34.00;1.00;;;;;;5015787;28;20450;-80
2022/08/03 11:36:00;;;;;;;1.80;1.70;;;34.10;1.00;;;;;;5029233;28;20412;-80
2022/08/03 11:38:27;;;;;;;6.93;1.60;;;33.90;1.00;;;;;;5022032;28;20451;-79
2022/08/03 11:41:03;;;;;;;3.47;1.80;;;33.70;1.00;;;;;;5018955;28;20506;-79
2022/08/03 11:44:03;;;;;;;1.63;1.53;;;33.90;1.00;;;;;;5022080;28;20771;-79
2022/08/03 11:46:36;;;;;;;1.77;1.67;;;33.80;1.00;;;;;;5035358;28;20416;-79
2022/08/03 11:49:08;;;;;;;1.60;1.50;;;33.80;1.00;;;;;;5015247;28;20424;-80
2022/08/03 11:51:39;;;;;;;1.80;1.40;;;33.90;1.00;;;;;;5015029;28;20456;-80
2022/08/03 11:54:18;;;;;;;2.10;1.53;;;34.10;1.00;;;;;;5016741;28;20405;-80
2022/08/03 11:56:57;;;;;;;1.97;1.40;;;34.20;1.00;;;;;;5023340;28;20423;-80
2022/08/03 11:59:38;;;;;;;1.90;1.80;;;34.30;1.00;;;;;;5023041;28;20776;-80
2022/08/03 12:02:08;;;;;;;2.83;1.60;;;34.30;1.00;;;;;;5014464;28;20428;-80
2022/08/03 12:04:53;;;;;;;2.87;1.90;;;34.40;1.00;;;;;;5015388;28;20416;-80
2022/08/03 12:07:20;;;;;;;1.90;1.80;;;34.60;1.00;;;;;;5013354;28;20950;-80
2022/08/03 12:10:14;;;;;;;2.10;1.93;;;34.60;1.00;;;;;;5016903;28;20428;-80
2022/08/03 12:12:41;;;;;;;3.20;1.93;;;34.70;1.00;;;;;;5019991;28;20428;-80
2022/08/03 12:15:08;;;;;;;1.77;1.67;;;34.60;1.00;;;;;;5015616;28;20431;-80
2022/08/03 12:17:39;;;;;;;2.30;1.73;;;34.60;1.00;;;;;;5025248;28;20962;-80
2022/08/03 12:20:08;;;;;;;2.50;1.90;;;34.70;1.00;;;;;;5022669;28;20442;-80
2022/08/03 12:22:38;;;;;;;3.60;1.90;;;34.60;1.00;;;;;;5030969;28;20430;-82
2022/08/03 12:25:08;;;;;;;1.70;1.60;;;34.60;1.00;;;;;;5024665;28;20434;-82
2022/08/03 12:27:35;;;;;;;2.10;2.00;;;34.60;1.00;;;;;;5033732;28;20984;-82
2022/08/03 12:30:02;;;;;;;1.50;1.50;;;34.80;1.00;;;;;;5021866;28;20787;-82
2022/08/03 12:32:28;;;;;;;4.67;1.50;;;35.00;1.00;;;;;;5013812;28;20412;-82
2022/08/03 12:34:59;;;;;;;1.80;1.70;;;35.20;1.00;;;;;;5015287;28;20447;-82
2022/08/03 12:37:25;;;;;;;1.60;1.50;;;35.20;1.00;;;;;;5025915;28;20958;-83
2022/08/03 12:39:54;;;;;;;7.93;1.80;;;35.40;1.00;;;;;;5015760;28;20432;-82
2022/08/03 12:42:19;;;;;;;2.10;1.90;;;35.30;1.00;;;;;;5013771;28;20574;-83
2022/08/03 12:44:47;;;;;;;1.93;1.47;;;35.20;1.00;;;;;;5013779;28;20420;-83
2022/08/03 12:47:14;;;;;;;2.40;1.50;;;35.30;1.00;;;;;;5012460;28;20208;-82
2022/08/03 12:49:50;;;;;;;2.00;1.57;;;35.20;1.00;;;;;;5013544;28;20420;-82
2022/08/03 12:52:17;;;;;;;2.40;1.60;;;35.20;1.00;;;;;;5026970;28;20473;-80
2022/08/03 12:55:03;;;;;;;2.60;1.40;;;35.20;1.00;;;;;;5021251;28;20898;-79
2022/08/03 12:57:45;;;;;;;2.93;1.47;;;35.10;1.00;;;;;;5018757;28;20419;-77
2022/08/03 13:00:17;;;;;;;2.60;1.70;;;35.00;1.00;;;;;;5014688;28;20753;-77
2022/08/03 13:03:07;;;;;;;2.07;1.67;;;35.10;1.00;;;;;;5025723;28;20470;-77
2022/08/03 13:05:43;;;;;;;2.33;1.77;;;35.20;1.00;;;;;;5026605;28;20441;-77
2022/08/03 13:08:33;;;;;;;1.53;1.43;;;35.40;1.00;;;;;;5023244;28;20431;-82
2022/08/03 13:11:16;;;;;;;2.00;1.90;;;35.60;1.00;;;;;;5017945;28;20455;-82
2022/08/03 13:14:15;;;;;;;3.10;1.77;;;35.60;1.00;;;;;;5027225;28;20411;-83
2022/08/03 13:16:51;;;;;;;1.70;1.40;;;35.70;1.00;;;;;;5025862;28;20514;-81
2022/08/03 13:19:35;;;;;;;2.17;1.30;;;35.50;1.00;;;;;;5032701;28;20564;-82
2022/08/03 13:22:11;;;;;;;1.47;1.37;;;35.50;1.00;;;;;;5020786;28;20423;-79
2022/08/03 13:24:56;;;;;;;1.77;1.30;;;35.40;1.00;;;;;;5025118;28;20865;-79
2022/08/03 13:27:24;;;;;;;1.60;1.50;;;35.50;1.00;;;;;;5021186;28;20465;-79
2022/08/03 13:29:58;;;;;;;1.40;1.30;;;35.50;1.00;;;;;;5026273;28;20435;-81
2022/08/03 13:32:45;;;;;;;3.57;1.37;;;35.50;1.00;;;;;;5019556;28;20403;-78
2022/08/03 13:35:11;;;;;;;1.50;1.40;;;35.60;1.00;;;;;;5032248;28;20470;-78
2022/08/03 13:37:39;;;;;;;1.33;1.23;;;35.70;1.00;;;;;;5016816;28;20456;-77
2022/08/03 13:40:21;;;;;;;1.30;1.20;;;35.80;1.00;;;;;;5023584;28;20268;-77
2022/08/03 13:43:15;;;;;;;2.03;1.53;;;35.70;1.00;;;;;;5023988;28;20973;-77
2022/08/03 13:45:41;;;;;;;1.40;1.30;;;35.70;1.00;;;;;;5014689;28;20431;-77